Time;durP1;ratioP1;P1;durP2;ratioP2;P2;SDS_P1;SDS_P2;PMS_P1;PMS_P2;Temp;Humidity;BMP_temperature;BMP_pressure;BME280_temperature;BME280_humidity;BME280_pressure;Samples;Min_cycle;Max_cycle;Signal;HPM_P1;HPM_P2
2021/04/06 00:00:35;;;;;;;6.50;3.20;;;;;;;4.56;42.92;98380.44;5011373;28;20045;-65
2021/04/06 00:03:02;;;;;;;6.82;3.45;;;;;;;4.51;43.48;98372.03;5011088;28;20034;-65
2021/04/06 00:05:30;;;;;;;7.75;3.17;;;;;;;4.52;43.15;98363.13;5011718;28;20095;-64
2021/04/06 00:07:58;;;;;;;8.27;3.35;;;;;;;4.48;43.53;98364.31;5011632;28;20046;-65
2021/04/06 00:10:34;;;;;;;4.20;3.00;;;;;;;4.53;43.36;98378.06;5010652;28;20060;-62
2021/04/06 00:13:00;;;;;;;4.50;3.28;;;;;;;4.38;43.29;98358.91;5011249;28;20049;-65
2021/04/06 00:15:28;;;;;;;5.97;3.15;;;;;;;4.44;43.56;98367.22;5011241;28;20038;-66
2021/04/06 00:17:56;;;;;;;5.15;3.40;;;;;;;4.42;43.64;98363.84;5011234;28;20111;-65
2021/04/06 00:20:24;;;;;;;5.38;3.72;;;;;;;4.42;43.63;98387.69;5010273;28;20894;-66
2021/04/06 00:22:50;;;;;;;6.30;2.92;;;;;;;4.40;43.63;98372.88;5010718;28;20030;-66
2021/04/06 00:25:21;;;;;;;7.35;3.35;;;;;;;4.34;43.92;98371.56;5011214;28;20038;-66
2021/04/06 00:27:50;;;;;;;10.18;3.40;;;;;;;4.30;43.81;98354.19;5010559;28;20050;-65
2021/04/06 00:30:23;;;;;;;8.77;3.22;;;;;;;4.39;43.96;98379.13;5010397;28;20053;-65
2021/04/06 00:32:58;;;;;;;7.30;3.30;;;;;;;4.42;44.43;98387.69;5008997;28;20038;-65
2021/04/06 00:35:32;;;;;;;6.47;3.53;;;;;;;4.37;44.56;98376.63;5010602;28;20034;-65
2021/04/06 00:37:58;;;;;;;6.57;3.67;;;;;;;4.31;44.11;98377.09;5011035;28;20032;-64
2021/04/06 00:40:27;;;;;;;4.85;3.05;;;;;;;4.40;44.47;98376.38;5009851;28;20041;-64
2021/04/06 00:43:04;;;;;;;5.32;3.25;;;;;;;4.36;44.72;98382.03;4990437;28;20545;-64
2021/04/06 00:45:35;;;;;;;6.43;3.03;;;;;;;4.27;44.04;98378.28;4991644;28;20100;-64
2021/04/06 00:48:17;;;;;;;8.75;3.58;;;;;;;3.89;44.30;98322.03;4991129;28;20042;-66
2021/04/06 00:51:01;;;;;;;5.40;3.53;;;;;;;4.23;45.04;98374.19;4999375;28;20353;-66
2021/04/06 00:54:04;;;;;;;9.40;3.25;;;;;;;4.23;44.83;98392.75;5010342;28;20044;-66
2021/04/06 00:56:37;;;;;;;5.10;3.25;;;;;;;3.53;45.29;98285.03;5009674;28;20153;-66
2021/04/06 00:59:05;;;;;;;4.50;2.90;;;;;;;3.86;44.86;98349.63;5010656;28;20129;-61
2021/04/06 01:01:31;;;;;;;7.97;3.65;;;;;;;4.08;45.44;98381.53;5009918;28;20077;-66
2021/04/06 01:03:57;;;;;;;6.85;3.40;;;;;;;3.97;44.95;98374.41;5010259;28;20065;-64
2021/04/06 01:06:23;;;;;;;5.18;2.95;;;;;;;4.01;45.37;98387.31;5025628;28;20045;-64
2021/04/06 01:08:52;;;;;;;5.85;3.50;;;;;;;4.04;45.67;98391.50;5010164;28;20038;-65
2021/04/06 01:11:18;;;;;;;10.48;3.80;;;;;;;4.00;45.66;98390.06;5010077;28;20125;-65
2021/04/06 01:13:45;;;;;;;5.38;3.58;;;;;;;3.90;45.44;98373.19;5009988;28;20037;-66
2021/04/06 01:16:10;;;;;;;4.13;3.10;;;;;;;3.84;45.76;98364.75;5008737;28;20033;-66
2021/04/06 01:18:36;;;;;;;5.45;3.70;;;;;;;3.97;45.59;98380.53;5009841;28;20112;-66
2021/04/06 01:21:10;;;;;;;9.77;3.72;;;;;;;3.91;46.08;98374.88;5010224;28;20521;-64
2021/04/06 01:23:37;;;;;;;4.33;3.47;;;;;;;3.32;45.79;98284.03;5010501;28;20029;-65
2021/04/06 01:26:08;;;;;;;6.03;3.38;;;;;;;3.76;45.99;98361.84;5008569;28;20034;-60
2021/04/06 01:28:34;;;;;;;6.10;3.60;;;;;;;3.87;45.98;98374.28;5008347;28;20057;-64
2021/04/06 01:31:03;;;;;;;4.30;3.25;;;;;;;3.86;45.93;98399.06;5010520;28;20041;-64
2021/04/06 01:33:30;;;;;;;6.82;3.80;;;;;;;3.85;46.11;98395.56;5010694;28;20037;-65
2021/04/06 01:35:59;;;;;;;5.60;3.58;;;;;;;3.78;46.34;98380.28;5009638;28;20034;-64
2021/04/06 01:38:27;;;;;;;9.02;3.20;;;;;;;3.81;46.11;98375.56;5009583;28;20030;-66
2021/04/06 01:40:54;;;;;;;6.20;3.15;;;;;;;3.68;46.46;98367.72;5012679;28;20036;-66
2021/04/06 01:43:22;;;;;;;5.05;3.80;;;;;;;3.76;46.12;98377.72;5013719;28;20048;-64
2021/04/06 01:45:52;;;;;;;6.03;3.15;;;;;;;3.54;46.32;98342.28;5013898;28;20045;-66
2021/04/06 01:48:18;;;;;;;7.30;3.75;;;;;;;3.79;46.40;98372.19;5013684;28;20124;-66
2021/04/06 01:50:50;;;;;;;4.53;3.65;;;;;;;3.84;46.55;98374.50;5012533;28;20034;-66
2021/04/06 01:53:17;;;;;;;5.38;3.45;;;;;;;3.80;46.50;98371.25;5013906;28;20045;-65
2021/04/06 01:55:47;;;;;;;4.55;3.30;;;;;;;3.75;47.02;98381.34;5010916;28;20551;-64
2021/04/06 01:58:13;;;;;;;4.93;3.58;;;;;;;3.66;46.83;98376.75;5013184;28;20433;-64
2021/04/06 02:01:04;;;;;;;6.10;3.50;;;;;;;3.66;46.95;98369.63;5013841;28;20041;-65
2021/04/06 02:03:31;;;;;;;5.90;3.55;;;;;;;3.61;46.82;98382.38;5013855;28;20111;-65
2021/04/06 02:05:57;;;;;;;7.10;3.53;;;;;;;3.30;47.31;98343.19;5013109;28;20566;-65
2021/04/06 02:08:25;;;;;;;7.30;3.55;;;;;;;3.53;47.37;98376.84;5013284;28;20112;-65
2021/04/06 02:10:51;;;;;;;7.35;3.80;;;;;;;3.52;47.30;98378.63;5013606;28;20538;-65
2021/04/06 02:13:19;;;;;;;4.78;3.33;;;;;;;3.51;47.38;98384.88;5013663;28;20121;-66
2021/04/06 02:16:02;;;;;;;5.53;3.67;;;;;;;3.57;47.88;98389.69;5012709;28;20053;-65
2021/04/06 02:18:30;;;;;;;4.72;3.60;;;;;;;3.52;47.25;98404.25;5013263;28;20037;-66
2021/04/06 02:20:58;;;;;;;5.72;3.88;;;;;;;3.55;47.89;98402.19;5013399;28;20073;-65
2021/04/06 02:23:24;;;;;;;7.15;3.72;;;;;;;3.59;47.54;98393.06;5012786;28;20038;-65
2021/04/06 02:25:52;;;;;;;4.95;3.50;;;;;;;3.62;47.47;98396.44;5019932;28;20033;-63
2021/04/06 02:28:23;;;;;;;4.85;3.55;;;;;;;3.41;47.41;98371.47;5026583;28;20054;-65
2021/04/06 02:30:53;;;;;;;5.30;3.42;;;;;;;3.43;47.51;98387.25;5012811;28;20045;-64
2021/04/06 02:33:23;;;;;;;5.78;3.50;;;;;;;3.51;47.74;98394.63;5012875;28;20042;-65
2021/04/06 02:36:15;;;;;;;10.38;4.03;;;;;;;3.57;47.82;98399.47;5012596;28;20034;-65
2021/04/06 02:38:44;;;;;;;5.57;3.65;;;;;;;3.52;47.85;98396.31;5013229;28;20078;-66
2021/04/06 02:41:15;;;;;;;7.78;3.80;;;;;;;3.48;48.14;98400.97;5012225;28;20026;-64
2021/04/06 02:43:45;;;;;;;7.90;3.80;;;;;;;3.48;47.94;98398.34;5011456;28;20044;-63
2021/04/06 02:46:12;;;;;;;5.13;3.67;;;;;;;3.54;47.41;98389.09;5012206;28;20033;-65
2021/04/06 02:48:38;;;;;;;8.27;3.78;;;;;;;3.51;47.63;98400.75;5012629;28;20053;-65
2021/04/06 02:51:04;;;;;;;8.05;4.13;;;;;;;3.47;47.27;98399.28;5011918;28;20077;-66
2021/04/06 02:53:32;;;;;;;6.00;3.72;;;;;;;3.45;48.04;98396.75;5012907;28;20038;-66
2021/04/06 02:55:58;;;;;;;10.30;4.50;;;;;;;3.57;47.72;98397.63;5011356;28;20152;-65
2021/04/06 02:58:23;;;;;;;7.85;4.40;;;;;;;3.62;47.60;98397.31;5012391;28;20103;-65
2021/04/06 03:00:49;;;;;;;5.57;3.97;;;;;;;3.68;47.36;98386.25;5012558;28;20432;-64
2021/04/06 03:03:25;;;;;;;8.02;3.95;;;;;;;3.68;47.61;98393.38;5012388;28;20034;-65
2021/04/06 03:06:03;;;;;;;6.22;3.95;;;;;;;3.67;47.60;98360.75;5012257;28;20119;-64
2021/04/06 03:08:30;;;;;;;6.80;4.13;;;;;;;3.82;47.44;98398.44;5012337;28;20047;-64
2021/04/06 03:10:56;;;;;;;8.20;4.32;;;;;;;3.92;46.85;98392.47;5012622;28;20034;-64
2021/04/06 03:13:24;;;;;;;7.28;4.40;;;;;;;4.06;47.04;98389.59;5012001;28;20128;-65
2021/04/06 03:15:50;;;;;;;6.47;3.97;;;;;;;4.17;46.66;98388.75;5010285;28;20080;-63
2021/04/06 03:18:16;;;;;;;9.93;4.85;;;;;;;4.22;46.53;98396.34;5012256;28;20099;-65
2021/04/06 03:20:42;;;;;;;8.27;4.22;;;;;;;4.19;46.63;98391.31;5011766;28;20129;-64
2021/04/06 03:23:08;;;;;;;8.18;4.38;;;;;;;4.25;46.67;98404.06;5026850;28;20121;-65
2021/04/06 03:25:38;;;;;;;7.57;4.38;;;;;;;4.28;46.64;98401.16;5011740;28;20088;-56
2021/04/06 03:28:08;;;;;;;6.47;4.95;;;;;;;4.87;45.52;98389.47;5011659;28;20081;-62
2021/04/06 03:30:35;;;;;;;7.13;4.88;;;;;;;5.74;43.92;98387.75;5011547;28;20046;-65
2021/04/06 03:33:14;;;;;;;9.35;4.38;;;;;;;6.83;41.11;98367.03;5011176;28;20034;-63
2021/04/06 03:35:41;;;;;;;6.22;4.70;;;;;;;7.86;39.35;98385.34;5012044;28;20442;-64
2021/04/06 03:38:13;;;;;;;7.43;4.43;;;;;;;8.55;37.36;98345.16;5012257;28;20045;-64
2021/04/06 03:40:39;;;;;;;10.32;4.90;;;;;;;9.37;36.28;98379.09;5011674;28;20057;-64
2021/04/06 03:43:18;;;;;;;7.93;4.78;;;;;;;10.16;34.96;98361.38;5011302;28;20444;-63
2021/04/06 03:45:57;;;;;;;8.57;4.97;;;;;;;10.73;33.74;98357.34;5011282;28;20044;-63
2021/04/06 03:48:24;;;;;;;8.60;4.45;;;;;;;11.22;32.49;98373.75;5011278;28;20049;-64
2021/04/06 03:50:50;;;;;;;8.45;4.85;;;;;;;11.63;31.80;98385.38;5011187;28;20072;-65
2021/04/06 03:53:16;;;;;;;9.43;4.72;;;;;;;12.20;31.25;98356.03;5011210;28;20052;-66
2021/04/06 03:55:43;;;;;;;8.52;4.82;;;;;;;12.74;30.41;98373.31;5010609;28;20040;-67
2021/04/06 03:58:18;;;;;;;7.78;5.18;;;;;;;13.28;29.12;98375.25;5011345;28;20520;-65
2021/04/06 04:00:44;;;;;;;8.48;5.05;;;;;;;13.96;28.38;98371.06;5011116;28;20080;-65
2021/04/06 04:03:09;;;;;;;7.25;5.13;;;;;;;14.17;27.64;98327.31;5010379;28;20034;-65
2021/04/06 04:05:35;;;;;;;6.60;5.22;;;;;;;14.93;26.86;98382.88;5009238;28;20097;-64
2021/04/06 04:08:01;;;;;;;6.80;4.85;;;;;;;15.36;25.95;98377.56;5011531;28;20241;-65
2021/04/06 04:10:27;;;;;;;7.68;4.82;;;;;;;15.82;25.63;98369.31;5010862;28;20128;-66
2021/04/06 04:12:53;;;;;;;9.43;5.20;;;;;;;16.31;24.65;98364.94;5010942;28;20037;-66
2021/04/06 04:15:19;;;;;;;8.32;5.10;;;;;;;16.79;24.04;98386.66;5011050;28;20375;-67
2021/04/06 04:17:51;;;;;;;8.25;4.70;;;;;;;17.36;22.82;98381.09;5011238;28;20486;-63
2021/04/06 04:20:19;;;;;;;11.98;5.10;;;;;;;17.67;22.45;98364.50;5009794;28;20073;-67
2021/04/06 04:22:45;;;;;;;10.93;5.30;;;;;;;18.15;21.79;98380.59;5010083;28;20045;-64
2021/04/06 04:25:12;;;;;;;5.97;4.93;;;;;;;18.50;21.23;98372.22;5010725;28;20049;-68
2021/04/06 04:27:40;;;;;;;9.27;5.00;;;;;;;19.28;20.33;98369.69;5010464;28;20413;-65
2021/04/06 04:30:06;;;;;;;12.02;5.35;;;;;;;19.71;20.13;98359.22;5010513;28;20084;-66
2021/04/06 04:32:32;;;;;;;9.23;5.00;;;;;;;20.17;19.41;98362.66;5010666;28;20034;-65
2021/04/06 04:34:57;;;;;;;9.05;5.70;;;;;;;20.37;19.11;98362.47;5010373;28;20088;-67
2021/04/06 04:37:23;;;;;;;9.00;5.50;;;;;;;20.74;18.66;98370.66;5010498;28;20073;-65
2021/04/06 04:39:48;;;;;;;12.88;5.10;;;;;;;21.14;18.14;98366.66;5010288;28;20409;-66
2021/04/06 04:42:14;;;;;;;10.60;5.15;;;;;;;21.42;17.57;98361.69;5010177;28;20040;-64
2021/04/06 04:44:40;;;;;;;6.85;5.40;;;;;;;21.80;17.40;98364.09;5009687;28;20096;-65
2021/04/06 04:47:05;;;;;;;11.30;5.13;;;;;;;22.29;16.57;98356.81;5009569;28;20410;-64
2021/04/06 04:49:31;;;;;;;7.70;4.97;;;;;;;22.87;16.20;98357.00;5010760;28;20041;-64
2021/04/06 04:51:56;;;;;;;11.65;5.80;;;;;;;23.30;15.48;98360.38;5009862;28;20136;-66
2021/04/06 04:54:22;;;;;;;10.57;5.55;;;;;;;23.31;15.07;98351.91;5010089;28;20598;-66
2021/04/06 04:56:47;;;;;;;8.18;5.22;;;;;;;23.54;14.91;98360.28;5009290;28;20096;-64
2021/04/06 04:59:13;;;;;;;11.30;6.30;;;;;;;23.65;14.76;98313.75;5009830;28;20041;-65
2021/04/06 05:01:38;;;;;;;7.32;5.03;;;;;;;24.37;14.18;98337.88;5009887;28;20095;-63
2021/04/06 05:04:04;;;;;;;6.03;5.10;;;;;;;24.51;14.13;98341.91;5010260;28;20477;-61
2021/04/06 05:06:29;;;;;;;7.07;4.78;;;;;;;24.69;13.85;98348.16;5010906;28;20422;-64
2021/04/06 05:08:55;;;;;;;8.65;5.15;;;;;;;24.87;14.17;98338.84;5010005;28;20490;-69
2021/04/06 05:11:20;;;;;;;9.55;4.90;;;;;;;25.25;13.55;98349.97;5009707;28;20456;-63
2021/04/06 05:13:47;;;;;;;10.80;5.25;;;;;;;25.48;12.98;98337.94;5009185;28;20120;-62
2021/04/06 05:16:13;;;;;;;9.23;5.07;;;;;;;25.54;12.68;98341.53;5008568;28;20080;-67
2021/04/06 05:18:38;;;;;;;11.85;5.13;;;;;;;25.74;12.60;98337.31;5009338;28;20451;-65
2021/04/06 05:21:04;;;;;;;7.68;4.78;;;;;;;26.12;12.57;98346.44;5004895;28;20096;-62
2021/04/06 05:23:29;;;;;;;9.13;4.85;;;;;;;26.67;11.78;98346.25;5006788;28;20072;-66
2021/04/06 05:25:55;;;;;;;5.75;4.75;;;;;;;27.17;11.69;98354.19;5009467;28;20522;-64
2021/04/06 05:28:21;;;;;;;5.60;4.63;;;;;;;27.65;11.15;98348.56;5009650;28;20057;-67
2021/04/06 05:30:47;;;;;;;9.32;5.57;;;;;;;28.03;10.60;98307.84;5009761;28;20448;-65
2021/04/06 05:33:12;;;;;;;9.75;5.18;;;;;;;28.79;10.19;98343.81;5010347;28;20042;-66
2021/04/06 05:35:38;;;;;;;10.07;5.13;;;;;;;29.49;9.89;98366.13;5009704;28;20053;-66
2021/04/06 05:38:03;;;;;;;11.00;5.43;;;;;;;29.74;9.63;98334.78;5009203;28;20524;-61
2021/04/06 05:40:29;;;;;;;14.13;6.13;;;;;;;29.94;9.51;98336.56;5010215;28;20041;-66
2021/04/06 05:42:54;;;;;;;10.68;5.18;;;;;;;30.32;9.37;98343.41;5009833;28;20087;-64
2021/04/06 05:45:20;;;;;;;10.90;5.20;;;;;;;30.83;8.80;98342.06;5009610;28;20038;-66
2021/04/06 05:47:51;;;;;;;7.85;5.20;;;;;;;31.05;8.24;98326.88;5040857;28;20457;-67
2021/04/06 05:50:17;;;;;;;11.02;4.93;;;;;;;31.55;8.34;98345.84;5009222;28;20179;-64
2021/04/06 05:52:43;;;;;;;16.65;4.90;;;;;;;32.16;8.07;98348.78;5009844;28;20077;-65
2021/04/06 05:55:09;;;;;;;20.75;5.68;;;;;;;32.35;7.65;98357.03;5009064;28;20038;-64
2021/04/06 05:57:35;;;;;;;8.82;4.60;;;;;;;32.35;7.73;98359.81;5007457;28;20040;-63
2021/04/06 06:00:01;;;;;;;12.15;4.65;;;;;;;32.49;7.23;98343.22;5008482;28;20033;-63
2021/04/06 06:02:29;;;;;;;9.15;4.50;;;;;;;32.30;7.62;98303.66;5010218;28;20169;-64
2021/04/06 06:04:57;;;;;;;12.30;6.22;;;;;;;32.57;6.84;98354.72;5009644;28;20037;-62
2021/04/06 06:07:23;;;;;;;6.25;4.53;;;;;;;32.89;7.27;98341.94;5009424;28;20034;-64
2021/04/06 06:09:49;;;;;;;7.93;4.68;;;;;;;33.11;6.69;98362.56;5008038;28;20033;-61
2021/04/06 06:12:18;;;;;;;11.82;4.22;;;;;;;32.82;6.60;98338.72;5007853;28;20038;-64
2021/04/06 06:14:47;;;;;;;7.88;4.03;;;;;;;32.52;7.18;98336.25;5009626;28;20045;-62
2021/04/06 06:17:15;;;;;;;16.00;4.55;;;;;;;32.46;7.25;98349.38;5009312;28;20515;-62
2021/04/06 06:19:41;;;;;;;7.40;4.38;;;;;;;32.93;6.82;98342.94;5009942;28;20040;-63
2021/04/06 06:22:37;;;;;;;10.82;4.25;;;;;;;34.45;7.00;98348.28;5009739;28;20034;-60
2021/04/06 06:25:07;;;;;;;14.25;5.18;;;;;;;34.57;6.17;98335.81;4998099;28;20042;-63
2021/04/06 06:27:34;;;;;;;9.20;4.85;;;;;;;34.77;5.83;98354.69;4994002;28;20054;-63
2021/04/06 06:30:33;;;;;;;8.63;4.63;;;;;;;34.85;5.94;98352.25;5005285;28;20053;-62
2021/04/06 06:33:21;;;;;;;12.52;4.70;;;;;;;34.67;6.13;98346.63;5013103;28;20482;-63
2021/04/06 06:35:48;;;;;;;10.38;4.57;;;;;;;34.78;5.98;98359.09;4999983;28;20048;-63
2021/04/06 06:38:41;;;;;;;6.95;4.20;;;;;;;35.29;5.45;98355.97;5011463;28;20124;-63
2021/04/06 06:41:17;;;;;;;8.77;4.40;;;;;;;35.21;5.33;98349.25;5013131;28;20029;-63
2021/04/06 06:43:56;;;;;;;7.57;4.10;;;;;;;35.31;5.55;98347.28;5013392;28;20042;-63
2021/04/06 06:46:30;;;;;;;9.57;3.97;;;;;;;35.63;4.98;98348.81;5012755;28;20030;-62
2021/04/06 06:49:05;;;;;;;19.50;5.17;;;;;;;36.03;5.01;98367.31;5012588;28;20096;-61
2021/04/06 06:51:33;;;;;;;7.97;4.50;;;;;;;35.43;4.96;98302.13;5013180;28;20449;-66
2021/04/06 06:53:59;;;;;;;10.95;4.50;;;;;;;35.24;5.23;98358.94;5011437;28;20569;-63
2021/04/06 06:56:39;;;;;;;7.68;4.60;;;;;;;35.53;5.30;98356.69;5011482;28;20124;-62
2021/04/06 06:59:05;;;;;;;7.13;4.30;;;;;;;35.79;5.24;98323.28;5010871;28;20047;-62
2021/04/06 07:01:33;;;;;;;12.25;4.10;;;;;;;36.03;4.60;98352.59;5010749;28;20040;-62
2021/04/06 07:04:05;;;;;;;7.22;3.72;;;;;;;36.74;4.32;98356.84;5012506;28;20057;-62
2021/04/06 07:06:34;;;;;;;5.80;3.90;;;;;;;36.77;4.10;98350.59;5012123;28;20539;-60
2021/04/06 07:09:01;;;;;;;8.20;4.18;;;;;;;37.00;4.03;98347.53;5012759;28;20059;-62
2021/04/06 07:11:30;;;;;;;10.75;4.50;;;;;;;37.44;4.10;98349.22;5010656;28;20041;-63
2021/04/06 07:13:56;;;;;;;13.20;4.43;;;;;;;37.35;4.11;98347.31;5007684;28;20061;-63
2021/04/06 07:16:21;;;;;;;6.30;4.07;;;;;;;36.99;4.19;98354.25;5011946;28;20104;-62
2021/04/06 07:18:51;;;;;;;7.43;4.40;;;;;;;36.70;4.01;98346.69;5012371;28;20042;-60
2021/04/06 07:21:19;;;;;;;7.22;4.45;;;;;;;36.58;4.31;98362.16;5011167;28;20034;-60
2021/04/06 07:24:00;;;;;;;5.05;4.07;;;;;;;37.67;4.35;98354.50;5012086;28;20030;-62
2021/04/06 07:26:27;;;;;;;6.10;3.95;;;;;;;38.10;3.70;98381.22;5010029;28;20087;-61
2021/04/06 07:28:52;;;;;;;7.10;4.20;;;;;;;38.23;3.28;98384.91;5010073;28;20072;-60
2021/04/06 07:31:18;;;;;;;9.25;4.00;;;;;;;37.30;3.87;98353.09;5004265;28;20041;-59
2021/04/06 07:33:47;;;;;;;10.68;4.32;;;;;;;36.32;4.50;98363.03;5008139;28;20029;-60
2021/04/06 07:36:18;;;;;;;8.30;4.25;;;;;;;34.36;5.10;98366.88;5008803;28;20403;-60
2021/04/06 07:38:49;;;;;;;7.10;4.35;;;;;;;33.81;5.59;98371.56;5010256;28;20137;-63
2021/04/06 07:41:17;;;;;;;9.98;3.95;;;;;;;33.99;5.49;98369.75;5011232;28;20036;-65
2021/04/06 07:43:46;;;;;;;4.50;3.72;;;;;;;33.56;5.55;98343.28;5011131;28;20469;-63
2021/04/06 07:46:34;;;;;;;9.88;4.45;;;;;;;34.60;5.32;98354.59;5011090;28;20038;-59
2021/04/06 07:49:00;;;;;;;6.07;4.30;;;;;;;34.84;4.64;98356.16;5006636;28;20037;-63
2021/04/06 07:51:31;;;;;;;9.77;4.47;;;;;;;34.41;5.09;98327.84;5008854;28;20042;-62
2021/04/06 07:54:12;;;;;;;8.45;4.10;;;;;;;34.19;5.30;98343.41;5010846;28;20556;-62
2021/04/06 07:56:55;;;;;;;6.88;4.15;;;;;;;33.87;5.84;98352.81;5009567;28;20398;-61
2021/04/06 07:59:21;;;;;;;6.32;4.55;;;;;;;32.97;6.02;98343.16;5010411;28;20481;-63
2021/04/06 08:01:58;;;;;;;9.50;4.28;;;;;;;32.47;6.44;98345.47;5010773;28;20044;-64
2021/04/06 08:04:26;;;;;;;17.60;5.15;;;;;;;30.88;6.71;98341.19;5010720;28;20063;-61
2021/04/06 08:06:57;;;;;;;8.25;4.75;;;;;;;28.17;8.21;98345.84;5010838;28;20046;-61
2021/04/06 08:09:28;;;;;;;10.82;4.65;;;;;;;25.69;9.65;98348.25;5010555;28;20080;-62
2021/04/06 08:12:12;;;;;;;14.35;4.63;;;;;;;23.51;11.10;98335.09;5009165;28;20335;-61
2021/04/06 08:14:46;;;;;;;9.40;5.32;;;;;;;21.72;12.62;98336.38;5011114;28;20034;-61
2021/04/06 08:17:23;;;;;;;12.23;5.13;;;;;;;20.31;13.71;98356.03;5009080;28;20509;-59
2021/04/06 08:19:55;;;;;;;10.20;5.00;;;;;;;18.97;15.02;98346.84;5009159;28;20405;-61
2021/04/06 08:22:25;;;;;;;7.43;4.97;;;;;;;17.99;16.21;98343.06;5010469;28;20033;-62
2021/04/06 08:24:52;;;;;;;10.02;4.88;;;;;;;17.34;16.49;98329.06;5009288;28;20030;-62
2021/04/06 08:27:35;;;;;;;10.52;4.80;;;;;;;17.16;17.07;98332.34;5009013;28;20081;-61
2021/04/06 08:30:19;;;;;;;7.32;4.45;;;;;;;17.00;17.40;98335.41;5008698;28;20406;-62
2021/04/06 08:32:56;;;;;;;10.85;4.78;;;;;;;16.72;17.64;98337.16;5008883;28;20107;-59
2021/04/06 08:35:47;;;;;;;8.80;5.00;;;;;;;16.44;17.96;98334.50;5008733;28;20040;-62
2021/04/06 08:38:22;;;;;;;16.30;5.28;;;;;;;16.25;18.43;98342.25;5000248;28;20104;-62
2021/04/06 08:40:58;;;;;;;7.80;4.90;;;;;;;15.71;18.99;98290.56;5009806;28;20132;-60
2021/04/06 08:43:26;;;;;;;8.65;5.10;;;;;;;15.60;18.96;98283.81;5010140;28;20044;-62
2021/04/06 08:46:05;;;;;;;7.15;5.10;;;;;;;15.82;19.14;98345.84;5010178;28;20100;-60
2021/04/06 08:51:27;;;;;;;9.70;5.40;;;;;;;15.98;19.09;98330.47;5009641;28;20033;-61
2021/04/06 08:54:01;;;;;;;8.68;5.70;;;;;;;16.00;19.23;98331.09;5009238;28;20033;-62
2021/04/06 08:56:29;;;;;;;9.35;5.25;;;;;;;16.06;19.16;98338.41;5009001;28;20044;-63
2021/04/06 08:59:17;;;;;;;9.90;5.60;;;;;;;16.09;19.21;98332.59;5008596;28;20521;-62
2021/04/06 09:01:47;;;;;;;10.68;5.03;;;;;;;15.62;19.53;98319.53;5000381;28;20052;-61
2021/04/06 09:04:17;;;;;;;5.82;4.93;;;;;;;15.88;19.36;98353.19;5010043;28;20030;-62
2021/04/06 09:06:44;;;;;;;9.90;4.97;;;;;;;15.76;19.53;98343.94;5009623;28;20041;-62
2021/04/06 09:09:10;;;;;;;10.20;5.22;;;;;;;15.68;19.59;98341.38;5009637;28;20037;-62
2021/04/06 09:11:38;;;;;;;8.98;5.38;;;;;;;15.80;19.83;98361.41;5009369;28;20053;-62
2021/04/06 09:14:04;;;;;;;10.35;5.80;;;;;;;15.68;19.91;98334.13;5006714;28;20417;-57
2021/04/06 09:16:31;;;;;;;10.35;5.20;;;;;;;15.61;19.93;98354.81;5010040;28;20038;-64
2021/04/06 09:18:59;;;;;;;10.55;4.90;;;;;;;15.50;19.93;98345.38;5009326;28;20041;-64
2021/04/06 09:21:26;;;;;;;12.57;5.72;;;;;;;15.48;20.12;98339.34;5009012;28;20088;-64
2021/04/06 09:23:53;;;;;;;10.50;5.40;;;;;;;15.40;20.38;98325.94;5009814;28;20030;-63
2021/04/06 09:26:19;;;;;;;7.63;5.65;;;;;;;15.52;20.64;98329.81;5007824;28;20084;-61
2021/04/06 09:28:46;;;;;;;9.57;5.32;;;;;;;15.65;20.38;98335.31;5009710;28;20421;-63
2021/04/06 09:31:11;;;;;;;21.88;6.20;;;;;;;15.68;20.43;98298.22;5004221;28;20097;-63
2021/04/06 09:33:38;;;;;;;8.20;5.30;;;;;;;15.91;20.13;98350.13;5009796;28;20514;-61
2021/04/06 09:36:11;;;;;;;13.82;5.85;;;;;;;15.82;20.19;98329.66;5009632;28;20129;-59
2021/04/06 09:38:38;;;;;;;10.18;5.10;;;;;;;15.82;20.23;98307.25;5009830;28;20034;-63
2021/04/06 09:41:03;;;;;;;8.20;5.65;;;;;;;15.79;20.07;98289.59;5009472;28;20065;-61
2021/04/06 09:43:45;;;;;;;10.52;5.57;;;;;;;16.14;19.88;98323.91;5009280;28;20564;-64
2021/04/06 09:46:11;;;;;;;16.27;6.50;;;;;;;15.59;20.15;98241.69;5009311;28;20065;-65
2021/04/06 09:48:37;;;;;;;13.15;5.82;;;;;;;15.82;20.22;98320.75;5009492;28;20033;-65
2021/04/06 09:51:05;;;;;;;12.82;5.88;;;;;;;15.79;20.56;98325.50;5009831;28;20044;-65
2021/04/06 09:53:35;;;;;;;8.63;5.63;;;;;;;15.78;20.50;98329.22;5010191;28;20071;-65
2021/04/06 09:56:01;;;;;;;13.05;6.30;;;;;;;15.81;20.48;98321.78;5008596;28;20500;-66
2021/04/06 09:58:28;;;;;;;10.95;5.88;;;;;;;15.80;20.41;98323.63;5009244;28;20129;-67
2021/04/06 10:00:53;;;;;;;8.27;5.70;;;;;;;15.90;20.43;98323.31;5010480;28;20061;-67
2021/04/06 10:03:24;;;;;;;8.55;5.65;;;;;;;16.01;20.37;98321.97;5013154;28;20068;-68
2021/04/06 10:06:00;;;;;;;9.85;6.13;;;;;;;15.98;20.29;98325.06;5012504;28;20088;-65
2021/04/06 10:08:29;;;;;;;7.82;6.00;;;;;;;15.98;20.34;98325.88;5010112;28;20121;-65
2021/04/06 10:10:54;;;;;;;7.55;5.50;;;;;;;15.80;20.55;98299.34;5012954;28;20490;-65
2021/04/06 10:13:20;;;;;;;7.93;5.65;;;;;;;15.83;20.27;98298.94;5011471;28;20061;-65
2021/04/06 10:15:45;;;;;;;11.55;6.07;;;;;;;16.00;20.35;98350.00;5012733;28;20540;-66
2021/04/06 10:18:14;;;;;;;11.20;5.68;;;;;;;15.91;20.24;98309.66;5013140;28;20029;-70
2021/04/06 10:20:43;;;;;;;12.93;6.18;;;;;;;15.90;20.43;98316.06;5013010;28;20465;-65
2021/04/06 10:23:10;;;;;;;14.63;6.18;;;;;;;15.87;20.70;98315.59;5012303;28;20034;-66
2021/04/06 10:25:43;;;;;;;9.05;5.80;;;;;;;15.85;20.87;98331.16;5011279;28;20464;-66
2021/04/06 10:28:22;;;;;;;9.65;6.28;;;;;;;15.44;20.92;98249.88;5007892;28;20054;-62
2021/04/06 10:30:56;;;;;;;12.75;5.88;;;;;;;15.68;20.98;98306.31;5011434;28;20570;-68
2021/04/06 10:33:28;;;;;;;11.65;6.18;;;;;;;15.74;21.11;98329.81;5007262;28;20053;-66
2021/04/06 10:35:57;;;;;;;10.23;6.32;;;;;;;15.76;21.20;98333.16;5012245;28;20100;-64
2021/04/06 10:38:26;;;;;;;11.80;5.93;;;;;;;15.83;21.12;98314.31;5027761;28;20296;-69
2021/04/06 10:41:02;;;;;;;9.93;6.45;;;;;;;15.95;20.81;98320.06;5012635;28;20096;-73
2021/04/06 10:43:28;;;;;;;12.63;5.95;;;;;;;16.03;20.68;98330.69;5012018;28;20439;-71
2021/04/06 10:46:12;;;;;;;11.52;6.07;;;;;;;16.06;20.75;98312.25;5012623;28;20029;-70
2021/04/06 10:48:41;;;;;;;8.50;5.68;;;;;;;15.93;20.98;98312.13;5012566;28;20065;-68
2021/04/06 10:51:22;;;;;;;8.02;6.00;;;;;;;15.93;20.92;98307.59;5009430;28;20088;-70
2021/04/06 10:53:53;;;;;;;11.27;6.07;;;;;;;16.04;20.90;98316.16;4996525;28;20042;-68
2021/04/06 10:56:23;;;;;;;9.57;6.40;;;;;;;16.00;20.85;98318.41;5009953;28;20410;-72
2021/04/06 10:59:02;;;;;;;8.65;6.22;;;;;;;16.06;20.86;98311.41;5011884;28;20038;-73
2021/04/06 11:01:37;;;;;;;10.73;5.97;;;;;;;15.65;21.04;98273.28;5012272;28;20161;-69
2021/04/06 11:04:10;;;;;;;8.55;6.13;;;;;;;16.01;20.98;98320.09;5012080;28;20049;-74
2021/04/06 11:06:39;;;;;;;11.23;6.72;;;;;;;15.82;21.19;98315.34;5009434;28;20081;-69
2021/04/06 11:09:14;;;;;;;8.02;6.13;;;;;;;15.86;21.24;98317.44;5011873;28;20038;-70
2021/04/06 11:11:41;;;;;;;12.85;6.72;;;;;;;15.83;21.08;98315.13;5011730;28;20118;-72
2021/04/06 11:14:12;;;;;;;10.32;5.90;;;;;;;15.97;21.03;98320.69;5011947;28;20042;-69
2021/04/06 11:16:39;;;;;;;8.65;5.85;;;;;;;16.10;20.69;98326.16;5010631;28;20073;-64
2021/04/06 11:19:18;;;;;;;10.65;6.70;;;;;;;16.18;20.85;98319.78;5007824;28;20038;-69
2021/04/06 11:21:46;;;;;;;9.50;6.40;;;;;;;16.32;20.62;98320.72;5011617;28;20037;-69
2021/04/06 11:24:13;;;;;;;11.10;6.10;;;;;;;16.26;20.64;98310.72;5011785;28;20026;-70
2021/04/06 11:26:39;;;;;;;11.25;6.57;;;;;;;16.15;20.72;98298.59;5011427;28;20045;-73
2021/04/06 11:29:09;;;;;;;11.57;6.28;;;;;;;16.16;20.78;98308.34;5011706;28;20463;-67
2021/04/06 11:31:36;;;;;;;14.32;5.88;;;;;;;16.09;20.79;98320.97;5011548;28;20620;-66
2021/04/06 11:34:04;;;;;;;10.30;6.40;;;;;;;16.00;20.99;98323.00;5011637;28;20345;-70
2021/04/06 11:36:30;;;;;;;19.15;6.40;;;;;;;16.02;20.91;98326.31;4993349;28;20070;-75
2021/04/06 11:38:55;;;;;;;10.65;6.03;;;;;;;15.87;21.17;98329.09;5010989;28;20120;-72
2021/04/06 11:41:21;;;;;;;8.27;6.60;;;;;;;15.91;21.21;98331.25;5011057;28;20041;-76
2021/04/06 11:43:48;;;;;;;12.52;6.00;;;;;;;15.87;21.07;98326.41;5011394;28;20092;-73
2021/04/06 11:46:17;;;;;;;12.18;6.25;;;;;;;15.81;21.53;98333.41;5026244;28;20481;-74
2021/04/06 11:48:44;;;;;;;11.05;6.65;;;;;;;15.79;21.58;98321.97;5002611;28;20037;-76